Time;durP1;ratioP1;P1;durP2;ratioP2;P2;SDS_P1;SDS_P2;PMS_P1;PMS_P2;Temp;Humidity;BMP_temperature;BMP_pressure;BME280_temperature;BME280_humidity;BME280_pressure;Samples;Min_cycle;Max_cycle;Signal;HPM_P1;HPM_P2
2023/06/02 00:01:02;;;;;;;16.58;3.53;;;10.70;99.90;;;;;;5067950;28;20060;-76
2023/06/02 00:03:33;;;;;;;18.25;3.15;;;10.80;99.90;;;;;;5060705;28;20029;-76
2023/06/02 00:06:05;;;;;;;18.98;4.28;;;10.80;99.90;;;;;;5059846;28;20044;-76
2023/06/02 00:08:32;;;;;;;17.05;3.80;;;10.70;99.90;;;;;;5051154;28;20040;-76
2023/06/02 00:10:59;;;;;;;16.23;3.22;;;10.70;99.90;;;;;;5059732;28;20057;-76
2023/06/02 00:13:26;;;;;;;16.90;3.88;;;10.70;99.90;;;;;;5051275;28;20037;-76
2023/06/02 00:15:53;;;;;;;16.48;3.75;;;10.70;99.90;;;;;;5050392;28;20298;-76
2023/06/02 00:18:22;;;;;;;15.52;3.03;;;10.70;99.90;;;;;;5054823;28;20049;-76
2023/06/02 00:20:48;;;;;;;14.20;3.50;;;10.70;99.90;;;;;;5060388;28;20106;-76
2023/06/02 00:23:14;;;;;;;18.02;3.20;;;10.60;99.90;;;;;;5068457;28;20036;-76
2023/06/02 00:25:40;;;;;;;18.92;3.05;;;10.60;99.90;;;;;;5068386;28;20189;-76
2023/06/02 00:28:06;;;;;;;17.33;4.15;;;10.60;99.90;;;;;;5069840;28;20109;-76
2023/06/02 00:30:33;;;;;;;15.23;3.22;;;10.60;99.90;;;;;;5058502;28;20048;-76
2023/06/02 00:33:00;;;;;;;15.60;3.30;;;10.60;99.90;;;;;;5064213;28;20410;-76
2023/06/02 00:35:26;;;;;;;15.60;3.17;;;10.60;99.90;;;;;;5065712;28;20051;-76
2023/06/02 00:37:52;;;;;;;13.88;3.42;;;10.50;99.90;;;;;;5062365;28;20037;-76
2023/06/02 00:40:18;;;;;;;17.98;3.45;;;10.50;99.90;;;;;;5057954;28;20043;-76
2023/06/02 00:42:43;;;;;;;18.80;3.40;;;10.50;99.90;;;;;;5068198;28;20271;-76
2023/06/02 00:45:10;;;;;;;17.50;3.65;;;10.50;99.90;;;;;;5068435;28;20044;-76
2023/06/02 00:47:35;;;;;;;14.10;3.10;;;10.50;99.90;;;;;;5068277;28;20047;-76
2023/06/02 00:50:01;;;;;;;18.00;3.28;;;10.50;99.90;;;;;;5056051;28;20437;-76
2023/06/02 00:52:28;;;;;;;18.05;3.78;;;10.50;99.90;;;;;;5068693;28;20379;-77
2023/06/02 00:54:56;;;;;;;18.77;3.70;;;10.50;99.90;;;;;;5057388;28;20036;-77
2023/06/02 00:57:28;;;;;;;16.35;3.35;;;10.50;99.90;;;;;;5063342;28;20036;-77
2023/06/02 00:59:55;;;;;;;16.30;3.53;;;10.50;99.90;;;;;;5060655;28;20448;-77
2023/06/02 01:02:21;;;;;;;18.27;3.78;;;10.50;99.90;;;;;;5058258;28;20652;-76
2023/06/02 01:04:50;;;;;;;16.80;3.38;;;10.50;99.90;;;;;;5043214;28;20041;-76
2023/06/02 01:07:23;;;;;;;18.27;3.47;;;10.40;99.90;;;;;;5065055;28;20102;-76
2023/06/02 01:09:54;;;;;;;18.48;3.63;;;10.40;99.90;;;;;;5045502;28;20045;-76
2023/06/02 01:12:20;;;;;;;15.93;2.90;;;10.40;99.90;;;;;;5065718;28;20044;-76
2023/06/02 01:14:47;;;;;;;15.07;3.67;;;10.40;99.90;;;;;;5066909;28;20059;-76
2023/06/02 01:17:13;;;;;;;15.90;3.17;;;10.40;99.90;;;;;;5050512;28;20128;-76
2023/06/02 01:19:40;;;;;;;12.65;2.92;;;10.40;99.90;;;;;;5064463;28;20056;-77
2023/06/02 01:22:10;;;;;;;18.25;3.42;;;10.40;99.90;;;;;;5062618;28;20040;-77
2023/06/02 01:24:38;;;;;;;17.02;3.45;;;10.40;99.90;;;;;;5064289;28;20102;-76
2023/06/02 01:27:06;;;;;;;19.65;3.40;;;10.40;99.90;;;;;;5064529;28;20110;-77
2023/06/02 01:29:35;;;;;;;17.13;3.08;;;10.40;99.90;;;;;;5064622;28;20045;-77
2023/06/02 01:32:19;;;;;;;21.65;4.03;;;10.40;99.90;;;;;;5061341;28;20109;-77
2023/06/02 01:34:53;;;;;;;20.17;4.22;;;10.30;99.90;;;;;;5065148;28;20296;-77
2023/06/02 01:37:21;;;;;;;17.65;3.92;;;10.30;99.90;;;;;;5067004;28;20119;-77
2023/06/02 01:39:48;;;;;;;16.52;3.42;;;10.40;99.90;;;;;;5049517;28;20591;-76
2023/06/02 01:42:15;;;;;;;16.30;3.35;;;10.30;99.90;;;;;;5062938;28;20051;-76
2023/06/02 01:44:42;;;;;;;17.77;3.30;;;10.30;99.90;;;;;;5063515;28;20111;-76
2023/06/02 01:47:09;;;;;;;15.50;3.30;;;10.30;99.90;;;;;;5061817;28;20056;-76
2023/06/02 01:49:35;;;;;;;14.65;3.42;;;10.30;99.90;;;;;;5049629;28;20049;-77
2023/06/02 01:52:01;;;;;;;15.63;3.28;;;10.30;99.90;;;;;;5056070;28;20428;-77
2023/06/02 01:54:26;;;;;;;18.35;3.00;;;10.30;99.90;;;;;;5053881;28;20075;-77
2023/06/02 01:56:52;;;;;;;14.20;3.55;;;10.40;99.90;;;;;;5060182;28;20044;-77
2023/06/02 01:59:18;;;;;;;18.35;3.92;;;10.40;99.90;;;;;;5067448;28;20052;-77
2023/06/02 02:01:44;;;;;;;19.80;4.53;;;10.40;99.90;;;;;;5070345;28;20075;-77
2023/06/02 02:04:11;;;;;;;17.75;3.60;;;10.40;99.90;;;;;;5065744;28;20079;-77
2023/06/02 02:06:37;;;;;;;16.20;3.22;;;10.40;99.90;;;;;;5064426;28;20045;-77
2023/06/02 02:09:07;;;;;;;15.50;3.30;;;9.90;99.90;;;;;;5034229;28;20037;-77
2023/06/02 02:11:34;;;;;;;15.45;3.22;;;10.40;99.90;;;;;;5061988;28;20042;-77
2023/06/02 02:14:04;;;;;;;15.30;2.90;;;10.40;99.90;;;;;;5058369;28;20037;-77
2023/06/02 02:16:30;;;;;;;15.55;2.95;;;10.40;99.90;;;;;;5063368;28;20049;-77
2023/06/02 02:18:58;;;;;;;16.85;3.60;;;10.40;99.90;;;;;;5070938;28;20166;-77
2023/06/02 02:21:24;;;;;;;17.98;3.53;;;10.40;99.90;;;;;;5065422;28;20040;-77
2023/06/02 02:23:49;;;;;;;14.73;3.40;;;10.50;99.90;;;;;;5066770;28;20045;-77
2023/06/02 02:26:16;;;;;;;16.15;3.45;;;10.50;99.90;;;;;;5058384;28;20056;-77
2023/06/02 02:28:41;;;;;;;18.88;3.60;;;10.50;99.90;;;;;;5067533;28;20040;-77
2023/06/02 02:31:07;;;;;;;19.90;3.20;;;10.50;99.90;;;;;;5071393;28;20063;-77
2023/06/02 02:33:33;;;;;;;18.50;3.22;;;10.50;99.90;;;;;;5070156;28;20044;-77
2023/06/02 02:35:59;;;;;;;19.10;3.70;;;10.50;99.90;;;;;;5068817;28;20044;-77
2023/06/02 02:38:24;;;;;;;14.35;2.97;;;10.50;99.90;;;;;;5047098;28;20040;-77
2023/06/02 02:40:50;;;;;;;14.50;3.45;;;10.50;99.90;;;;;;5060760;28;20040;-77
2023/06/02 02:43:17;;;;;;;18.50;3.67;;;10.50;99.90;;;;;;5071146;28;20036;-77
2023/06/02 02:45:43;;;;;;;17.95;3.78;;;10.50;99.90;;;;;;5068694;28;20033;-76
2023/06/02 02:48:09;;;;;;;17.50;3.97;;;10.50;99.90;;;;;;5061022;28;20482;-77
2023/06/02 02:50:35;;;;;;;17.65;3.58;;;10.50;99.90;;;;;;5069774;28;20043;-77
2023/06/02 02:53:01;;;;;;;17.00;4.13;;;10.50;99.90;;;;;;5048486;28;20044;-77
2023/06/02 02:55:26;;;;;;;16.90;3.30;;;10.50;99.90;;;;;;5063299;28;20328;-77
2023/06/02 02:57:52;;;;;;;17.08;3.20;;;10.50;99.90;;;;;;5069970;28;20738;-77
2023/06/02 03:00:19;;;;;;;21.58;4.20;;;10.50;99.90;;;;;;5071473;28;20527;-77
2023/06/02 03:02:44;;;;;;;18.30;3.40;;;10.50;99.90;;;;;;5068384;28;20045;-77
2023/06/02 03:05:13;;;;;;;21.73;4.10;;;10.50;99.90;;;;;;5057791;28;20110;-77
2023/06/02 03:07:39;;;;;;;18.17;3.78;;;10.50;99.90;;;;;;5067878;28;20040;-76
2023/06/02 03:10:06;;;;;;;16.67;3.47;;;10.50;99.90;;;;;;5058853;28;20156;-76
2023/06/02 03:12:32;;;;;;;20.65;3.90;;;10.60;99.90;;;;;;5056139;28;20106;-77
2023/06/02 03:14:59;;;;;;;18.50;3.78;;;10.50;99.90;;;;;;5060993;28;20041;-76
2023/06/02 03:17:27;;;;;;;17.02;3.90;;;10.60;99.90;;;;;;5065646;28;20048;-77
2023/06/02 03:19:55;;;;;;;22.98;3.85;;;10.60;99.90;;;;;;5058716;28;20083;-77
2023/06/02 03:22:21;;;;;;;20.30;4.00;;;10.60;99.90;;;;;;5056185;28;20502;-77
2023/06/02 03:24:46;;;;;;;20.23;3.85;;;10.60;99.90;;;;;;5070920;28;20043;-77
2023/06/02 03:27:15;;;;;;;18.83;3.90;;;10.60;99.90;;;;;;5055889;28;20127;-76
2023/06/02 03:29:42;;;;;;;19.02;3.80;;;10.60;99.90;;;;;;5060439;28;20095;-76
2023/06/02 03:32:11;;;;;;;21.75;3.95;;;10.60;99.90;;;;;;5058444;28;20052;-77
2023/06/02 03:34:40;;;;;;;14.45;3.33;;;10.60;99.90;;;;;;5058038;28;20591;-76
2023/06/02 03:37:07;;;;;;;20.42;4.03;;;10.70;99.90;;;;;;5059300;28;20036;-77
2023/06/02 03:39:32;;;;;;;17.48;3.80;;;10.70;99.90;;;;;;5070095;28;20037;-76
2023/06/02 03:41:58;;;;;;;15.10;3.33;;;10.70;99.90;;;;;;5046781;28;20066;-76
2023/06/02 03:44:24;;;;;;;20.85;3.80;;;10.70;99.90;;;;;;5057496;28;20037;-76
2023/06/02 03:46:49;;;;;;;20.92;3.63;;;10.70;99.90;;;;;;5069305;28;20091;-76
2023/06/02 03:49:15;;;;;;;16.85;3.50;;;10.70;99.90;;;;;;5067934;28;20041;-76
2023/06/02 03:51:43;;;;;;;20.65;3.85;;;10.70;99.90;;;;;;5053730;28;20048;-77
2023/06/02 03:54:09;;;;;;;17.65;3.38;;;10.80;99.90;;;;;;5068750;28;20040;-77
2023/06/02 03:56:35;;;;;;;18.38;3.65;;;10.70;99.90;;;;;;5059033;28;20405;-76
2023/06/02 03:59:00;;;;;;;17.10;3.35;;;10.80;99.90;;;;;;5055029;28;20037;-76
2023/06/02 04:01:27;;;;;;;20.48;3.85;;;10.80;99.90;;;;;;5050635;28;20104;-76
2023/06/02 04:03:52;;;;;;;18.33;3.70;;;10.80;99.90;;;;;;5040855;28;20063;-76
2023/06/02 04:06:18;;;;;;;13.13;3.25;;;10.80;99.90;;;;;;5058593;28;20136;-76
2023/06/02 04:08:46;;;;;;;19.92;3.90;;;10.90;99.90;;;;;;5068118;28;20035;-76
2023/06/02 04:11:12;;;;;;;17.17;3.70;;;10.90;99.90;;;;;;5033612;28;20128;-76
2023/06/02 04:13:38;;;;;;;21.35;4.18;;;10.90;99.90;;;;;;5069465;28;20525;-76
2023/06/02 04:16:03;;;;;;;20.33;3.50;;;10.90;99.90;;;;;;5064769;28;20040;-76
2023/06/02 04:18:31;;;;;;;16.30;3.53;;;10.90;99.90;;;;;;5057206;28;20465;-76
2023/06/02 04:20:57;;;;;;;23.33;3.90;;;11.00;99.90;;;;;;5070562;28;20088;-76
2023/06/02 04:23:23;;;;;;;22.05;4.15;;;11.00;99.90;;;;;;5067423;28;20442;-77
2023/06/02 04:25:49;;;;;;;20.83;3.45;;;11.00;99.90;;;;;;5068026;28;20040;-77
2023/06/02 04:28:15;;;;;;;17.25;3.97;;;11.10;99.90;;;;;;5062723;28;20086;-77
2023/06/02 04:30:41;;;;;;;17.60;3.97;;;11.20;99.90;;;;;;5067935;28;20064;-77
2023/06/02 04:33:08;;;;;;;23.30;4.38;;;11.00;99.90;;;;;;5069732;28;20068;-76
2023/06/02 04:35:35;;;;;;;23.75;4.25;;;11.10;99.90;;;;;;5063946;28;20055;-76
2023/06/02 04:38:01;;;;;;;19.58;3.95;;;11.10;99.90;;;;;;5061066;28;20044;-77
2023/06/02 04:40:27;;;;;;;21.05;4.50;;;11.10;99.90;;;;;;5050191;28;20355;-77
2023/06/02 04:42:52;;;;;;;16.70;4.28;;;11.10;99.90;;;;;;5061032;28;20040;-77
2023/06/02 04:45:20;;;;;;;22.50;4.22;;;11.20;99.90;;;;;;5053130;28;20029;-77
2023/06/02 04:47:46;;;;;;;23.55;4.57;;;11.20;99.90;;;;;;5064897;28;20044;-77
2023/06/02 04:50:13;;;;;;;17.48;4.50;;;11.20;99.90;;;;;;5068503;28;20504;-77
2023/06/02 04:52:40;;;;;;;17.58;3.65;;;11.30;99.90;;;;;;5050397;28;20088;-77
2023/06/02 04:55:10;;;;;;;18.02;4.18;;;11.30;99.90;;;;;;5049375;28;20116;-77
2023/06/02 04:57:36;;;;;;;18.17;3.67;;;11.30;99.90;;;;;;5068468;28;20114;-77
2023/06/02 05:00:07;;;;;;;17.92;4.20;;;11.30;99.90;;;;;;5062516;28;20074;-77
2023/06/02 05:02:33;;;;;;;22.23;4.00;;;11.40;99.90;;;;;;5053883;28;20052;-76
2023/06/02 05:04:59;;;;;;;18.63;4.07;;;11.40;99.90;;;;;;5056473;28;20284;-76
2023/06/02 05:07:24;;;;;;;20.65;4.07;;;11.50;99.90;;;;;;5066028;28;20115;-76
2023/06/02 05:09:50;;;;;;;19.80;4.25;;;11.50;99.90;;;;;;5059797;28;20140;-76
2023/06/02 05:12:18;;;;;;;20.42;4.68;;;11.60;99.90;;;;;;5052862;28;20037;-76
2023/06/02 05:14:44;;;;;;;21.83;4.43;;;11.60;99.90;;;;;;5048327;28;20439;-76
2023/06/02 05:17:10;;;;;;;20.85;4.50;;;11.60;99.90;;;;;;5053111;28;20028;-76
2023/06/02 05:19:36;;;;;;;21.02;5.10;;;11.60;99.90;;;;;;5064386;28;20059;-76
2023/06/02 05:22:02;;;;;;;22.58;4.70;;;11.70;99.90;;;;;;5069265;28;20093;-76
2023/06/02 05:24:29;;;;;;;20.25;4.72;;;11.70;99.90;;;;;;5068199;28;20045;-76
2023/06/02 05:26:55;;;;;;;26.60;5.38;;;11.80;99.90;;;;;;5055612;28;20045;-76
2023/06/02 05:29:21;;;;;;;22.35;5.10;;;11.90;99.90;;;;;;5062733;28;20039;-76
2023/06/02 05:31:46;;;;;;;24.20;5.28;;;11.90;99.90;;;;;;5050219;28;20053;-76
2023/06/02 05:34:12;;;;;;;24.55;4.75;;;12.00;99.90;;;;;;5051815;28;20048;-76
2023/06/02 05:36:38;;;;;;;19.65;4.50;;;12.00;99.90;;;;;;5060775;28;20525;-76
2023/06/02 05:39:03;;;;;;;28.88;5.43;;;12.10;99.90;;;;;;5070390;28;20056;-76
2023/06/02 05:41:29;;;;;;;19.63;4.70;;;12.10;99.90;;;;;;5073393;28;20040;-76
2023/06/02 05:43:55;;;;;;;21.65;4.75;;;12.20;99.90;;;;;;5070587;28;20044;-76
2023/06/02 05:46:22;;;;;;;23.92;4.90;;;12.20;99.90;;;;;;5058316;28;20032;-76
2023/06/02 05:48:48;;;;;;;25.58;5.15;;;12.30;99.90;;;;;;5060019;28;20194;-76
2023/06/02 05:51:14;;;;;;;24.38;4.85;;;12.30;99.90;;;;;;5055108;28;20123;-77
2023/06/02 05:53:40;;;;;;;21.20;4.63;;;12.40;99.90;;;;;;5072506;28;20036;-76
2023/06/02 05:56:06;;;;;;;23.40;4.57;;;12.50;99.90;;;;;;5063094;28;20142;-76
2023/06/02 05:58:36;;;;;;;22.83;4.53;;;12.50;99.90;;;;;;5072561;28;20044;-76
2023/06/02 06:01:02;;;;;;;25.15;5.20;;;12.50;99.90;;;;;;5072717;28;20044;-76
2023/06/02 06:03:28;;;;;;;29.73;6.05;;;12.50;99.90;;;;;;5066206;28;20036;-76
2023/06/02 06:05:53;;;;;;;21.60;4.95;;;12.60;99.90;;;;;;5060540;28;20489;-76
2023/06/02 06:08:19;;;;;;;22.67;5.20;;;12.60;99.90;;;;;;5063924;28;20066;-76
2023/06/02 06:10:45;;;;;;;21.45;4.75;;;12.70;99.90;;;;;;5067487;28;20417;-76
2023/06/02 06:13:11;;;;;;;22.02;5.07;;;12.70;99.90;;;;;;5069438;28;20410;-76
2023/06/02 06:15:36;;;;;;;22.35;5.40;;;12.80;99.90;;;;;;5066589;28;20120;-76
2023/06/02 06:18:02;;;;;;;24.75;5.90;;;12.90;99.90;;;;;;5064804;28;20049;-76
2023/06/02 06:20:28;;;;;;;25.00;4.85;;;13.00;99.90;;;;;;5065598;28;20036;-76
2023/06/02 06:22:54;;;;;;;26.55;5.18;;;13.10;99.90;;;;;;5056999;28;20040;-76
2023/06/02 06:25:19;;;;;;;21.10;5.05;;;13.20;99.90;;;;;;5052090;28;20132;-76
2023/06/02 06:27:45;;;;;;;21.38;5.03;;;13.40;99.90;;;;;;5066856;28;20032;-76
2023/06/02 06:30:11;;;;;;;20.80;4.50;;;13.50;99.90;;;;;;5052089;28;20494;-76
2023/06/02 06:32:36;;;;;;;24.83;5.38;;;13.60;99.90;;;;;;5066405;28;20080;-76
2023/06/02 06:35:02;;;;;;;23.98;4.72;;;13.70;99.90;;;;;;5068341;28;20049;-75
2023/06/02 06:37:28;;;;;;;19.75;4.78;;;13.80;99.90;;;;;;5069580;28;20086;-76
2023/06/02 06:39:54;;;;;;;17.42;4.80;;;13.90;99.90;;;;;;5052582;28;20037;-75
2023/06/02 06:42:22;;;;;;;21.20;5.30;;;13.90;99.90;;;;;;5051964;28;20518;-76
2023/06/02 06:44:50;;;;;;;20.08;5.15;;;14.00;99.90;;;;;;5051762;28;20312;-76
2023/06/02 06:47:17;;;;;;;19.75;4.80;;;14.00;99.90;;;;;;5050855;28;20048;-76
2023/06/02 06:49:43;;;;;;;24.30;5.28;;;14.00;99.90;;;;;;5068513;28;20101;-76
2023/06/02 06:52:09;;;;;;;23.35;4.82;;;14.00;99.90;;;;;;5072028;28;20040;-76
2023/06/02 06:54:34;;;;;;;24.67;4.32;;;14.10;99.90;;;;;;5053306;28;20040;-76
2023/06/02 06:57:00;;;;;;;21.30;5.07;;;13.70;99.90;;;;;;5068879;28;20045;-76
2023/06/02 06:59:26;;;;;;;19.85;4.88;;;14.10;99.90;;;;;;5068695;28;20138;-76
2023/06/02 07:01:52;;;;;;;20.77;4.75;;;14.30;99.90;;;;;;5051957;28;20039;-76
2023/06/02 07:04:17;;;;;;;31.02;4.65;;;14.40;99.90;;;;;;5049758;28;20045;-76
2023/06/02 07:06:43;;;;;;;22.08;4.30;;;14.80;99.90;;;;;;5050105;28;20037;-76
2023/06/02 07:09:10;;;;;;;20.17;4.32;;;15.00;99.90;;;;;;5055630;28;20490;-76
2023/06/02 07:11:36;;;;;;;17.27;3.90;;;15.30;99.90;;;;;;5033548;28;20522;-76
2023/06/02 07:14:02;;;;;;;21.30;3.95;;;15.50;99.90;;;;;;5051053;28;20064;-76
2023/06/02 07:16:27;;;;;;;17.60;3.65;;;15.60;99.90;;;;;;5051218;28;20122;-76
2023/06/02 07:18:53;;;;;;;17.60;3.85;;;15.60;99.90;;;;;;5050495;28;20180;-76
2023/06/02 07:21:19;;;;;;;18.80;3.50;;;15.60;99.90;;;;;;5041754;28;20207;-76
2023/06/02 07:23:45;;;;;;;15.90;3.65;;;15.40;99.90;;;;;;5050807;28;20079;-76
2023/06/02 07:26:10;;;;;;;16.08;3.80;;;15.20;99.90;;;;;;5050708;28;20325;-76
2023/06/02 07:28:38;;;;;;;18.10;3.67;;;15.10;99.90;;;;;;5055875;28;20061;-76
2023/06/02 07:31:04;;;;;;;22.08;3.80;;;15.20;99.90;;;;;;5050878;28;20063;-76
2023/06/02 07:33:30;;;;;;;15.02;3.20;;;15.50;99.90;;;;;;5050907;28;20037;-76
2023/06/02 07:35:55;;;;;;;21.77;3.50;;;15.70;99.90;;;;;;5049717;28;20124;-76
2023/06/02 07:38:21;;;;;;;15.07;3.08;;;15.90;99.90;;;;;;5039526;28;20470;-75
2023/06/02 07:40:47;;;;;;;16.38;3.10;;;16.10;99.90;;;;;;5050658;28;20536;-75
2023/06/02 07:43:12;;;;;;;15.20;2.92;;;16.20;99.90;;;;;;5050710;28;20076;-75
2023/06/02 07:45:38;;;;;;;13.10;2.75;;;16.30;99.90;;;;;;5049202;28;20048;-76
2023/06/02 07:48:04;;;;;;;11.02;2.83;;;16.30;99.90;;;;;;5055029;28;20510;-76
2023/06/02 07:50:30;;;;;;;10.02;2.95;;;16.30;99.90;;;;;;5057175;28;20041;-76
2023/06/02 07:52:56;;;;;;;16.92;2.95;;;16.40;99.90;;;;;;5050467;28;20045;-75
2023/06/02 07:55:21;;;;;;;12.60;2.75;;;16.40;99.90;;;;;;5050497;28;20040;-75
2023/06/02 07:57:47;;;;;;;11.40;2.20;;;16.40;99.90;;;;;;5048269;28;20463;-76
2023/06/02 08:00:18;;;;;;;19.27;3.13;;;16.50;99.90;;;;;;5056414;28;20051;-76
2023/06/02 08:02:48;;;;;;;9.18;2.42;;;16.60;99.90;;;;;;5050417;28;20047;-75
2023/06/02 08:05:15;;;;;;;10.73;2.42;;;16.70;99.90;;;;;;5050017;28;20041;-76
2023/06/02 08:07:41;;;;;;;11.68;2.40;;;16.70;99.90;;;;;;5032671;28;20051;-75
2023/06/02 08:10:08;;;;;;;10.30;2.30;;;16.80;99.90;;;;;;5053854;28;20531;-76
2023/06/02 08:12:34;;;;;;;7.32;1.80;;;17.00;99.90;;;;;;5054064;28;20090;-76
2023/06/02 08:15:00;;;;;;;7.10;2.15;;;17.00;99.90;;;;;;5049817;28;20045;-76
2023/06/02 08:17:29;;;;;;;9.48;2.15;;;17.10;99.90;;;;;;5050259;28;20116;-76
2023/06/02 08:19:59;;;;;;;11.40;2.10;;;17.10;99.90;;;;;;5054210;28;20112;-75
2023/06/02 08:22:26;;;;;;;8.60;1.90;;;17.30;99.90;;;;;;5053877;28;20080;-75
2023/06/02 08:24:53;;;;;;;8.10;1.80;;;17.30;99.90;;;;;;5049831;28;20147;-76
2023/06/02 08:27:21;;;;;;;11.95;1.98;;;17.30;99.90;;;;;;5049896;28;20080;-76
2023/06/02 08:29:49;;;;;;;7.45;1.90;;;17.30;99.90;;;;;;5049023;28;20033;-76
2023/06/02 08:32:17;;;;;;;9.07;2.13;;;17.30;99.90;;;;;;5052018;28;20121;-76
2023/06/02 08:34:50;;;;;;;8.48;1.90;;;17.30;99.90;;;;;;5052108;28;20050;-76
2023/06/02 08:37:17;;;;;;;8.73;2.08;;;17.30;99.90;;;;;;5053282;28;20360;-76
2023/06/02 08:39:47;;;;;;;7.85;1.80;;;17.40;99.90;;;;;;5049553;28;20490;-75
2023/06/02 08:42:14;;;;;;;8.63;1.70;;;17.40;99.90;;;;;;5062547;28;20037;-76
2023/06/02 08:44:42;;;;;;;6.32;1.55;;;17.50;99.90;;;;;;5068445;28;20063;-76
2023/06/02 08:47:11;;;;;;;7.03;1.90;;;17.50;99.90;;;;;;5054336;28;20474;-76
2023/06/02 08:49:48;;;;;;;9.35;1.85;;;17.60;99.90;;;;;;5069249;28;20086;-76
2023/06/02 08:52:22;;;;;;;7.65;2.00;;;17.60;99.90;;;;;;5069791;28;20063;-75
2023/06/02 08:54:49;;;;;;;6.82;1.92;;;17.70;99.90;;;;;;5068431;28;20059;-76
2023/06/02 08:57:22;;;;;;;6.30;1.80;;;17.70;99.90;;;;;;5055103;28;20242;-75
2023/06/02 08:59:49;;;;;;;8.60;1.95;;;17.70;99.90;;;;;;5031508;28;20161;-75
2023/06/02 09:02:16;;;;;;;6.53;1.92;;;17.80;99.90;;;;;;5049284;28;20136;-76
2023/06/02 09:04:42;;;;;;;9.23;1.95;;;17.90;99.90;;;;;;5059026;28;20048;-75
2023/06/02 09:07:18;;;;;;;9.43;1.90;;;17.90;99.90;;;;;;5063082;28;20059;-75
2023/06/02 09:09:47;;;;;;;7.95;2.17;;;17.90;99.90;;;;;;5067090;28;20107;-75
2023/06/02 09:12:14;;;;;;;8.75;2.10;;;18.10;99.90;;;;;;5063429;28;20048;-75
2023/06/02 09:14:41;;;;;;;7.85;2.00;;;18.10;99.90;;;;;;5055125;28;20042;-76
2023/06/02 09:17:26;;;;;;;10.32;1.90;;;18.00;99.90;;;;;;5060878;28;20117;-78
2023/06/02 09:19:54;;;;;;;9.05;2.20;;;18.00;99.90;;;;;;5062093;28;20417;-76
2023/06/02 09:22:20;;;;;;;14.07;2.50;;;18.00;99.90;;;;;;5053936;28;20055;-76
2023/06/02 09:24:46;;;;;;;8.02;2.15;;;18.10;99.90;;;;;;5059291;28;20036;-76
2023/06/02 09:27:13;;;;;;;9.65;2.28;;;18.10;99.90;;;;;;5061095;28;20040;-76
2023/06/02 09:29:40;;;;;;;12.02;2.50;;;18.00;99.90;;;;;;5059090;28;20037;-76
2023/06/02 09:32:17;;;;;;;9.20;2.38;;;18.00;99.90;;;;;;5051823;28;20056;-76
2023/06/02 09:34:45;;;;;;;10.13;2.10;;;18.00;99.90;;;;;;5061570;28;20413;-76
2023/06/02 09:37:13;;;;;;;8.13;2.13;;;18.00;99.90;;;;;;5064828;28;20119;-75
2023/06/02 09:39:44;;;;;;;7.90;2.40;;;18.10;99.90;;;;;;5065526;28;20509;-76
2023/06/02 09:42:11;;;;;;;8.77;2.25;;;18.10;99.90;;;;;;5058660;28;20127;-75
2023/06/02 09:44:38;;;;;;;8.73;2.05;;;18.10;99.90;;;;;;5062691;28;20048;-75
2023/06/02 09:47:24;;;;;;;8.55;2.20;;;18.10;99.90;;;;;;5060857;28;20360;-75
2023/06/02 09:49:50;;;;;;;7.35;2.10;;;18.20;99.90;;;;;;5053614;28;20048;-75
2023/06/02 09:52:17;;;;;;;8.55;1.90;;;18.20;99.90;;;;;;5051033;28;20082;-76
2023/06/02 09:54:44;;;;;;;8.40;1.90;;;18.30;99.90;;;;;;5048602;28;20041;-75
2023/06/02 09:57:15;;;;;;;6.72;2.08;;;18.30;99.90;;;;;;5056548;28;20115;-76
2023/06/02 09:59:41;;;;;;;9.07;2.15;;;18.10;99.90;;;;;;5062075;28;20040;-75
2023/06/02 10:02:11;;;;;;;6.40;1.90;;;18.20;99.90;;;;;;5058374;28;20140;-75
2023/06/02 10:04:38;;;;;;;7.88;1.85;;;18.30;99.90;;;;;;5055513;28;20095;-75
2023/06/02 10:07:15;;;;;;;5.38;1.73;;;18.30;99.90;;;;;;5061216;28;20041;-75
2023/06/02 10:10:10;;;;;;;9.77;1.90;;;18.40;99.90;;;;;;5048689;28;20053;-75
2023/06/02 10:13:00;;;;;;;7.32;1.73;;;18.50;99.90;;;;;;5066210;28;20070;-75
2023/06/02 10:15:37;;;;;;;6.45;1.63;;;18.50;99.90;;;;;;5058134;28;20044;-75
2023/06/02 10:18:09;;;;;;;6.05;1.70;;;18.60;99.90;;;;;;5052634;28;20037;-75
2023/06/02 10:21:06;;;;;;;4.10;1.33;;;18.70;99.90;;;;;;5056296;28;20044;-75
2023/06/02 10:23:50;;;;;;;5.25;1.50;;;18.70;99.90;;;;;;5057806;28;20161;-76
2023/06/02 10:26:33;;;;;;;5.53;1.50;;;18.80;99.90;;;;;;5059943;28;20506;-75
2023/06/02 10:29:04;;;;;;;7.13;1.80;;;18.80;99.90;;;;;;5056874;28;20036;-76
2023/06/02 10:31:31;;;;;;;7.10;1.60;;;18.90;99.90;;;;;;5065692;28;20136;-76
2023/06/02 10:33:59;;;;;;;7.85;2.05;;;18.90;99.90;;;;;;5061188;28;20041;-76
2023/06/02 10:36:25;;;;;;;8.18;1.80;;;18.90;99.90;;;;;;5064966;28;20619;-75
2023/06/02 10:38:52;;;;;;;6.43;1.70;;;18.80;99.90;;;;;;5065331;28;20120;-76
2023/06/02 10:41:21;;;;;;;7.68;1.80;;;18.80;99.90;;;;;;5063561;28;20564;-76
2023/06/02 10:44:22;;;;;;;7.82;1.77;;;18.80;99.90;;;;;;5063480;28;20041;-75
2023/06/02 10:47:17;;;;;;;8.15;2.05;;;18.90;99.90;;;;;;5065260;28;20087;-76
2023/06/02 10:50:24;;;;;;;7.45;1.90;;;18.90;99.90;;;;;;5063103;28;20489;-76
2023/06/02 10:52:59;;;;;;;8.45;1.90;;;18.50;99.90;;;;;;5060798;28;20076;-75
2023/06/02 10:55:33;;;;;;;8.35;2.10;;;18.50;99.90;;;;;;5040999;28;20147;-76
2023/06/02 10:58:04;;;;;;;10.10;2.40;;;18.60;99.90;;;;;;5059763;28;20041;-75
2023/06/02 11:00:32;;;;;;;8.38;2.40;;;18.70;99.90;;;;;;5055186;28;20142;-76
2023/06/02 11:03:02;;;;;;;7.32;2.33;;;18.80;99.90;;;;;;5056970;28;20029;-76
2023/06/02 11:05:29;;;;;;;8.85;2.47;;;18.70;99.90;;;;;;5061307;28;20044;-76
2023/06/02 11:08:14;;;;;;;9.13;2.55;;;18.80;99.90;;;;;;5061505;28;21851;-76
2023/06/02 11:10:44;;;;;;;7.88;2.30;;;18.90;99.90;;;;;;5062054;28;20089;-76
2023/06/02 11:13:20;;;;;;;7.30;2.40;;;18.80;99.90;;;;;;5064006;28;20043;-76
2023/06/02 11:15:54;;;;;;;7.30;2.40;;;18.90;99.90;;;;;;5061120;28;20094;-76
2023/06/02 11:18:23;;;;;;;9.77;2.63;;;19.00;99.90;;;;;;5060401;28;20498;-76
2023/06/02 11:20:51;;;;;;;11.50;2.72;;;19.10;99.90;;;;;;5064362;28;20498;-76
2023/06/02 11:23:20;;;;;;;11.40;2.90;;;19.00;99.90;;;;;;5060284;28;20129;-76
2023/06/02 11:26:06;;;;;;;9.15;2.70;;;19.20;99.90;;;;;;5063672;28;20044;-76
2023/06/02 11:28:32;;;;;;;7.05;1.95;;;19.50;99.90;;;;;;5060787;28;20285;-77
2023/06/02 11:31:07;;;;;;;8.50;2.53;;;19.30;99.90;;;;;;5058745;28;20413;-76
2023/06/02 11:33:34;;;;;;;8.85;2.47;;;19.50;99.90;;;;;;5059631;28;20052;-76
2023/06/02 11:36:12;;;;;;;10.10;2.47;;;19.60;99.90;;;;;;5062254;28;20063;-77
2023/06/02 11:38:39;;;;;;;10.40;2.40;;;19.50;99.90;;;;;;5060660;28;20624;-76
2023/06/02 11:41:17;;;;;;;8.07;2.20;;;19.40;99.90;;;;;;5040812;28;20044;-76
2023/06/02 11:43:45;;;;;;;11.27;2.47;;;19.50;99.90;;;;;;5042618;28;20163;-76
2023/06/02 11:46:11;;;;;;;9.20;1.98;;;19.90;99.90;;;;;;5062894;28;20041;-76
2023/06/02 11:48:38;;;;;;;9.98;2.47;;;19.80;99.90;;;;;;5061403;28;20406;-76
2023/06/02 11:51:08;;;;;;;12.15;2.70;;;19.90;99.90;;;;;;5064778;28;20040;-76
2023/06/02 11:53:35;;;;;;;8.65;2.72;;;19.90;99.90;;;;;;5063154;28;20029;-77
2023/06/02 11:56:02;;;;;;;8.50;2.67;;;;;;;;;;5061410;28;20044;-76
2023/06/02 11:58:29;;;;;;;8.77;2.63;;;20.00;99.90;;;;;;5042224;28;20050;-76
2023/06/02 12:01:10;;;;;;;11.57;2.90;;;20.00;99.90;;;;;;5057358;28;20043;-76
2023/06/02 12:03:36;;;;;;;11.18;2.60;;;19.60;99.90;;;;;;5060571;28;20409;-77
2023/06/02 12:06:12;;;;;;;9.63;2.75;;;19.50;99.90;;;;;;5060408;28;20037;-76
2023/06/02 12:08:38;;;;;;;9.38;2.50;;;19.50;99.90;;;;;;5062636;28;20047;-76
2023/06/02 12:11:04;;;;;;;9.57;2.63;;;;;;;;;;5060796;28;20047;-76
2023/06/02 12:13:31;;;;;;;9.88;3.00;;;19.70;99.90;;;;;;5061986;28;20036;-77
2023/06/02 12:16:19;;;;;;;10.07;3.15;;;19.50;99.90;;;;;;5062392;28;20041;-76
2023/06/02 12:18:44;;;;;;;9.30;3.20;;;19.60;99.90;;;;;;5062647;28;20193;-76
2023/06/02 12:21:40;;;;;;;11.18;3.35;;;19.60;99.90;;;;;;5064717;28;20123;-76
2023/06/02 12:24:07;;;;;;;11.63;3.13;;;19.50;99.90;;;;;;5062521;28;20048;-76
2023/06/02 12:26:40;;;;;;;14.27;3.53;;;19.60;99.90;;;;;;5059031;28;20060;-76
2023/06/02 12:29:07;;;;;;;10.90;2.97;;;19.60;99.90;;;;;;5063740;28;20044;-76
2023/06/02 12:31:32;;;;;;;12.00;3.50;;;19.80;99.90;;;;;;5060129;28;20114;-77
2023/06/02 12:33:58;;;;;;;9.98;3.20;;;19.70;99.90;;;;;;5061604;28;20037;-76
2023/06/02 12:36:25;;;;;;;10.90;3.15;;;19.50;99.90;;;;;;5062374;28;20040;-76
2023/06/02 12:38:51;;;;;;;13.05;3.42;;;19.50;99.90;;;;;;5062279;28;20051;-76
2023/06/02 12:41:17;;;;;;;11.77;3.30;;;19.60;99.90;;;;;;5061217;28;20045;-76
2023/06/02 12:43:43;;;;;;;10.57;2.95;;;19.70;99.90;;;;;;5061055;28;20048;-76
2023/06/02 12:46:12;;;;;;;10.20;3.10;;;19.70;99.90;;;;;;5056689;28;21449;-76